Saint-Romuald, Canada
Current Conditions -  °F | °C
As of 4:00 AM on Friday 24 Oct 2014 (Local Time) from CYQB Reporting Station
Rain Showers Rain Showers  
Wind Chill: 37°   Ceiling: 4700
Heat Index: 43°   Visibility: 12mi
Dew Point: 34°   Wind: 10mph
Humidity: 70%   Direction: 70°ENE
Pressure: 29.91"   Gusts: NA
Location:  46.75°N, 71.23°W
Report Text: CYQB 240800Z 07009KT 12SM -SHRA BKN047 OVC063 06/01 A2991 RMK SC6SC2 SLP130
Loading
Personal Weather Stations






























Interactive Weather Map
Tropical Storm Tracking
New forecast layout! Learn more

10-Day Weather Forecast

Advertisements
Track Severe Weather on mobile